Time;durP1;ratioP1;P1;durP2;ratioP2;P2;SDS_P1;SDS_P2;PMS_P1;PMS_P2;Temp;Humidity;BMP_temperature;BMP_pressure;BME280_temperature;BME280_humidity;BME280_pressure;Samples;Min_cycle;Max_cycle;Signal;HPM_P1;HPM_P2
2024/02/28 00:00:16;;;;;;;25.70;10.20;;;;;;;1.39;100.00;101257.90;106024;1257;67263;-57
2024/02/28 00:02:43;;;;;;;25.40;9.40;;;;;;;1.35;100.00;101256.79;106191;1257;73259;-57
2024/02/28 00:05:09;;;;;;;31.40;10.70;;;;;;;1.33;100.00;101256.05;106072;1260;59912;-57
2024/02/28 00:07:36;;;;;;;29.30;9.20;;;;;;;1.31;100.00;101253.90;106432;1258;60747;-56
2024/02/28 00:10:03;;;;;;;22.70;9.10;;;;;;;1.29;100.00;101250.50;106110;1257;72888;-57
2024/02/28 00:12:30;;;;;;;35.30;10.10;;;;;;;1.29;100.00;101248.73;105970;1261;70666;-57
2024/02/28 00:14:56;;;;;;;22.30;10.20;;;;;;;1.27;100.00;101244.48;106597;1256;73076;-57
2024/02/28 00:17:23;;;;;;;19.80;9.80;;;;;;;1.26;100.00;101241.46;106057;1269;59701;-57
2024/02/28 00:19:50;;;;;;;27.80;12.60;;;;;;;1.26;100.00;101241.27;106115;1265;60143;-57
2024/02/28 00:22:16;;;;;;;24.30;10.50;;;;;;;1.25;100.00;101240.20;106121;1254;59516;-57
2024/02/28 00:24:44;;;;;;;24.30;12.00;;;;;;;1.23;100.00;101235.58;106628;1258;67068;-57
2024/02/28 00:27:11;;;;;;;29.80;11.40;;;;;;;1.23;100.00;101235.58;106128;1261;72781;-57
2024/02/28 00:29:38;;;;;;;30.60;13.00;;;;;;;1.23;100.00;101235.77;106087;1266;60096;-57
2024/02/28 00:32:05;;;;;;;24.70;12.20;;;;;;;1.23;100.00;101231.68;106158;1258;60713;-57
2024/02/28 00:34:31;;;;;;;31.50;12.80;;;;;;;1.23;100.00;101230.10;106071;1259;72267;-58
2024/02/28 00:36:58;;;;;;;31.00;12.90;;;;;;;1.22;100.00;101228.66;106141;1254;67134;-58
2024/02/28 00:39:25;;;;;;;27.50;13.80;;;;;;;1.20;100.00;101225.63;106587;1257;71588;-57
2024/02/28 00:41:51;;;;;;;36.80;14.30;;;;;;;1.16;100.00;101222.41;106052;1259;60198;-58
2024/02/28 00:44:19;;;;;;;34.60;12.90;;;;;;;1.14;100.00;101222.73;106076;1256;60602;-56
2024/02/28 00:46:45;;;;;;;30.30;12.30;;;;;;;1.12;100.00;101219.70;106004;1254;73280;-56
2024/02/28 00:49:12;;;;;;;27.10;10.90;;;;;;;1.12;100.00;101219.34;105972;1254;67193;-58
2024/02/28 00:51:38;;;;;;;26.70;12.80;;;;;;;1.12;100.00;101218.11;105993;1259;73192;-57
2024/02/28 00:54:05;;;;;;;28.60;11.20;;;;;;;1.14;100.00;101217.25;105995;1259;61048;-57
2024/02/28 00:56:32;;;;;;;31.60;11.90;;;;;;;1.15;100.00;101212.48;105987;1257;60637;-57
2024/02/28 00:58:58;;;;;;;33.70;13.20;;;;;;;1.16;100.00;101213.75;105974;1254;72930;-57
2024/02/28 01:01:25;;;;;;;24.20;10.50;;;;;;;1.17;100.00;101210.41;105962;1254;67502;-57
2024/02/28 01:03:51;;;;;;;33.00;12.00;;;;;;;1.18;100.00;101208.13;106439;1254;73168;-57
2024/02/28 01:06:18;;;;;;;27.10;12.20;;;;;;;1.19;100.00;101205.83;106097;1259;59958;-57
2024/02/28 01:08:45;;;;;;;26.00;10.80;;;;;;;1.19;100.00;101202.65;106063;1258;60309;-57
2024/02/28 01:11:12;;;;;;;22.60;11.90;;;;;;;1.19;100.00;101197.87;106108;1260;72119;-57
2024/02/28 01:13:38;;;;;;;26.10;12.40;;;;;;;1.18;100.00;101197.87;106269;1256;67611;-57
2024/02/28 01:16:05;;;;;;;24.20;12.50;;;;;;;1.17;100.00;101196.95;105997;1254;72680;-57
2024/02/28 01:18:32;;;;;;;37.10;13.40;;;;;;;1.16;100.00;101195.17;106161;1266;60527;-57
2024/02/28 01:20:59;;;;;;;24.50;11.10;;;;;;;1.12;100.00;101189.82;106234;1259;60590;-57
2024/02/28 01:23:25;;;;;;;36.70;13.30;;;;;;;1.10;100.00;101188.39;106077;1254;72773;-57
2024/02/28 01:25:52;;;;;;;29.30;11.60;;;;;;;1.07;100.00;101189.23;106064;1258;67128;-57
2024/02/28 01:28:18;;;;;;;27.90;10.00;;;;;;;1.06;100.00;101184.61;106011;1256;59705;-57
2024/02/28 01:30:45;;;;;;;25.30;10.00;;;;;;;1.05;100.00;101178.23;106053;1260;62492;-57
2024/02/28 01:33:13;;;;;;;25.20;10.00;;;;;;;1.05;100.00;101177.52;106066;1256;59974;-56
2024/02/28 01:35:40;;;;;;;22.60;9.20;;;;;;;1.04;100.00;101175.22;107184;1256;72752;-57
2024/02/28 01:38:07;;;;;;;22.30;9.50;;;;;;;1.07;100.00;101175.45;106134;1254;66153;-57
2024/02/28 01:40:33;;;;;;;24.30;10.60;;;;;;;1.11;100.00;101169.30;106061;1259;60439;-56
2024/02/28 01:43:09;;;;;;;28.70;11.10;;;;;;;1.13;100.00;101167.02;106041;1254;59743;-56
2024/02/28 01:45:36;;;;;;;24.90;10.90;;;;;;;1.14;100.00;101167.03;106227;1259;60872;-57
2024/02/28 01:48:05;;;;;;;26.60;11.00;;;;;;;1.15;100.00;101168.82;106613;1256;72953;-57
2024/02/28 01:50:32;;;;;;;32.00;11.80;;;;;;;1.14;100.00;101162.27;106430;1258;67552;-56
2024/02/28 01:52:59;;;;;;;25.90;11.70;;;;;;;1.15;100.00;101165.27;106263;1254;72540;-56
2024/02/28 01:55:26;;;;;;;24.90;11.70;;;;;;;1.15;100.00;101163.52;106015;1273;60220;-56
2024/02/28 01:57:52;;;;;;;20.40;10.30;;;;;;;1.16;100.00;101166.00;106041;1254;60421;-56
2024/02/28 02:00:20;;;;;;;26.80;11.80;;;;;;;1.16;100.00;101167.59;106244;1259;72597;-56
2024/02/28 02:02:46;;;;;;;23.00;10.70;;;;;;;1.16;100.00;101171.30;106030;1258;67570;-56
2024/02/28 02:05:15;;;;;;;27.10;13.00;;;;;;;1.15;100.00;101170.77;105997;1254;72716;-56
2024/02/28 02:07:42;;;;;;;26.70;10.50;;;;;;;1.14;100.00;101171.99;107460;1256;61633;-58
2024/02/28 02:10:12;;;;;;;27.30;11.40;;;;;;;1.13;100.00;101172.69;106058;1255;61116;-57
2024/02/28 02:12:38;;;;;;;21.10;10.00;;;;;;;1.14;100.00;101175.70;106053;1259;73433;-56
2024/02/28 02:15:05;;;;;;;23.50;9.80;;;;;;;1.15;100.00;101172.89;106051;1255;66993;-55
2024/02/28 02:17:32;;;;;;;26.40;11.10;;;;;;;1.19;100.00;101174.69;109001;1258;73063;-56
2024/02/28 02:19:59;;;;;;;29.60;11.70;;;;;;;1.22;100.00;101173.85;109193;1254;61314;-56
2024/02/28 02:22:27;;;;;;;27.50;11.10;;;;;;;1.23;100.00;101172.98;109038;1254;58847;-56
2024/02/28 02:24:53;;;;;;;24.10;11.10;;;;;;;1.24;100.00;101172.11;108890;1254;72140;-56
2024/02/28 02:27:20;;;;;;;26.90;12.40;;;;;;;1.24;100.00;101171.77;106083;1254;66966;-57
2024/02/28 02:29:46;;;;;;;25.90;10.80;;;;;;;1.24;100.00;101170.17;106017;1254;72718;-56
2024/02/28 02:32:13;;;;;;;25.50;11.30;;;;;;;1.24;100.00;101165.75;106119;1254;59282;-56
2024/02/28 02:34:40;;;;;;;22.10;12.10;;;;;;;1.23;100.00;101163.95;105999;1259;60517;-57
2024/02/28 02:37:08;;;;;;;24.10;12.30;;;;;;;1.19;100.00;101167.28;108994;1254;72515;-57
2024/02/28 02:39:35;;;;;;;30.50;13.00;;;;;;;1.16;100.00;101167.24;109173;1254;67222;-57
2024/02/28 02:42:01;;;;;;;32.50;12.70;;;;;;;1.14;100.00;101168.10;109013;1254;57752;-58
2024/02/28 02:44:28;;;;;;;29.90;11.40;;;;;;;1.12;100.00;101171.95;109159;1254;59850;-57
2024/02/28 02:46:54;;;;;;;27.60;11.60;;;;;;;1.10;100.00;101172.13;109053;1255;59200;-58
2024/02/28 02:49:21;;;;;;;28.70;11.70;;;;;;;1.11;100.00;101169.83;108024;1256;73356;-57
2024/02/28 02:51:47;;;;;;;22.00;9.50;;;;;;;1.12;100.00;101171.95;105970;1259;59628;-57
2024/02/28 02:54:14;;;;;;;28.20;9.90;;;;;;;1.14;100.00;101173.75;106516;1254;59629;-57
2024/02/28 02:56:43;;;;;;;28.50;10.70;;;;;;;1.15;100.00;101172.89;106074;1254;61303;-56
2024/02/28 02:59:11;;;;;;;24.90;10.20;;;;;;;1.17;100.00;101171.67;106127;1254;60523;-57
2024/02/28 03:01:38;;;;;;;21.80;10.50;;;;;;;1.18;100.00;101170.27;106213;1254;71880;-55
2024/02/28 03:04:05;;;;;;;26.10;11.90;;;;;;;1.19;100.00;101169.22;106095;1259;65599;-56
2024/02/28 03:06:32;;;;;;;24.80;12.50;;;;;;;1.20;100.00;101171.88;106278;1257;60268;-55
2024/02/28 03:08:58;;;;;;;25.60;11.30;;;;;;;1.20;100.00;101170.29;106076;1254;59583;-56
2024/02/28 03:11:25;;;;;;;29.30;10.40;;;;;;;1.18;100.00;101172.92;106051;1259;59634;-58
2024/02/28 03:13:52;;;;;;;26.10;11.90;;;;;;;1.14;100.00;101171.10;106098;1256;73044;-55
2024/02/28 03:16:18;;;;;;;23.10;11.10;;;;;;;1.10;100.00;101174.77;106146;1257;59753;-55
2024/02/28 03:18:45;;;;;;;28.80;12.40;;;;;;;1.07;100.00;101178.98;106066;1254;60776;-55
2024/02/28 03:21:11;;;;;;;23.20;12.00;;;;;;;1.04;100.00;101174.16;106088;1254;60944;-55
2024/02/28 03:23:38;;;;;;;22.90;11.80;;;;;;;1.02;100.00;101179.62;106102;1254;60200;-58
2024/02/28 03:26:04;;;;;;;25.20;11.10;;;;;;;1.00;100.00;101177.48;106063;1256;60145;-54
2024/02/28 03:28:31;;;;;;;20.90;9.20;;;;;;;0.99;100.00;101174.80;106067;1254;60523;-56
2024/02/28 03:30:58;;;;;;;21.70;9.70;;;;;;;1.00;100.00;101178.18;106107;1254;73278;-55
2024/02/28 03:33:25;;;;;;;19.70;8.70;;;;;;;1.02;100.00;101178.38;106007;1254;61419;-54
2024/02/28 03:35:51;;;;;;;26.60;9.30;;;;;;;1.05;100.00;101177.89;106367;1255;62044;-58
2024/02/28 03:38:18;;;;;;;26.20;9.90;;;;;;;1.08;100.00;101183.41;106003;1254;73868;-56
2024/02/28 03:40:44;;;;;;;24.50;11.10;;;;;;;1.11;100.00;101183.09;106136;1256;60395;-56
2024/02/28 03:43:12;;;;;;;19.60;9.80;;;;;;;1.14;100.00;101182.95;106014;1257;61291;-54
2024/02/28 03:45:39;;;;;;;24.50;10.70;;;;;;;1.16;100.00;101186.34;105982;1254;61672;-53
2024/02/28 03:48:06;;;;;;;21.90;10.90;;;;;;;1.18;100.00;101184.60;106002;1261;60408;-54
2024/02/28 03:50:32;;;;;;;29.40;11.30;;;;;;;1.19;100.00;101183.90;105990;1259;72726;-56
2024/02/28 03:52:59;;;;;;;25.50;11.30;;;;;;;1.17;100.00;101181.59;105994;1257;60445;-56
2024/02/28 03:55:25;;;;;;;21.10;10.50;;;;;;;1.17;100.00;101179.81;106037;1257;60911;-54
2024/02/28 03:57:52;;;;;;;24.80;11.50;;;;;;;1.14;100.00;101179.05;106089;1255;60469;-55
2024/02/28 04:00:19;;;;;;;25.30;11.70;;;;;;;1.12;100.00;101179.20;106137;1261;60536;-55
2024/02/28 04:02:45;;;;;;;27.80;11.80;;;;;;;1.09;100.00;101179.02;106064;1257;73579;-54
2024/02/28 04:05:12;;;;;;;30.10;12.80;;;;;;;1.06;100.00;101173.47;106207;1259;60332;-57
2024/02/28 04:07:39;;;;;;;22.60;11.10;;;;;;;1.02;100.00;101174.66;106071;1259;73179;-56
2024/02/28 04:10:06;;;;;;;30.40;10.00;;;;;;;1.00;100.00;101173.59;106067;1257;61206;-57
2024/02/28 04:12:33;;;;;;;21.00;10.90;;;;;;;0.99;100.00;101167.21;106121;1257;60452;-55
2024/02/28 04:14:59;;;;;;;20.30;9.20;;;;;;;1.01;100.00;101166.17;106180;1254;73601;-54
2024/02/28 04:17:26;;;;;;;22.30;9.00;;;;;;;1.02;100.00;101168.83;106200;1257;68795;-55
2024/02/28 04:19:52;;;;;;;22.40;9.80;;;;;;;1.04;100.00;101165.65;106475;1256;71773;-56
2024/02/28 04:22:19;;;;;;;21.50;10.80;;;;;;;1.05;100.00;101167.80;107024;1259;60407;-56
2024/02/28 04:24:46;;;;;;;24.70;11.70;;;;;;;1.05;100.00;101172.05;106080;1258;61523;-54
2024/02/28 04:27:12;;;;;;;26.80;10.80;;;;;;;1.04;100.00;101166.91;107301;1257;73795;-53
2024/02/28 04:29:39;;;;;;;24.70;10.50;;;;;;;1.03;100.00;101165.48;106348;1256;67126;-54
2024/02/28 04:32:06;;;;;;;24.60;10.20;;;;;;;1.01;100.00;101169.53;106062;1259;71622;-54
2024/02/28 04:34:32;;;;;;;21.10;11.10;;;;;;;0.98;100.00;101171.25;106082;1254;61266;-54
2024/02/28 04:36:59;;;;;;;24.30;10.30;;;;;;;0.94;100.00;101171.38;106026;1255;60429;-55
2024/02/28 04:39:26;;;;;;;23.60;10.30;;;;;;;0.90;100.00;101171.86;106538;1257;72628;-54
2024/02/28 04:41:52;;;;;;;23.10;9.90;;;;;;;0.87;100.00;101173.05;106236;1254;67829;-53
2024/02/28 04:44:19;;;;;;;27.50;9.70;;;;;;;0.86;100.00;101169.66;106300;1253;72881;-54
2024/02/28 04:46:46;;;;;;;29.10;9.40;;;;;;;0.86;100.00;101170.36;106068;1255;61215;-54
2024/02/28 04:49:12;;;;;;;19.20;9.30;;;;;;;0.85;100.00;101168.60;106036;1257;59280;-56
2024/02/28 04:51:39;;;;;;;22.80;10.10;;;;;;;0.86;100.00;101169.84;105983;1260;60319;-53
2024/02/28 04:54:05;;;;;;;20.90;8.40;;;;;;;0.88;100.00;101172.88;106064;1257;67187;-55
2024/02/28 04:56:32;;;;;;;16.20;9.50;;;;;;;0.90;100.00;101170.44;105921;1262;73245;-53
2024/02/28 04:58:58;;;;;;;22.60;8.50;;;;;;;0.92;100.00;101175.95;105952;1257;60512;-54
2024/02/28 05:01:25;;;;;;;20.40;8.40;;;;;;;0.94;100.00;101178.63;106060;1259;60943;-53
2024/02/28 05:03:52;;;;;;;24.00;10.00;;;;;;;0.96;100.00;101181.82;106045;1256;73877;-55
2024/02/28 05:06:18;;;;;;;25.60;11.00;;;;;;;0.97;100.00;101178.85;106355;1258;65887;-54
2024/02/28 05:08:45;;;;;;;23.10;11.10;;;;;;;0.99;100.00;101185.59;106046;1257;72988;-54
2024/02/28 05:11:12;;;;;;;18.30;9.10;;;;;;;0.99;100.00;101186.64;106074;1257;61320;-57
2024/02/28 05:13:38;;;;;;;20.40;8.80;;;;;;;0.97;100.00;101184.15;106115;1259;60479;-53
2024/02/28 05:16:12;;;;;;;21.60;10.10;;;;;;;0.96;100.00;101188.18;106109;1257;61310;-53
2024/02/28 05:18:39;;;;;;;19.90;9.90;;;;;;;0.94;100.00;101190.98;109037;1254;65906;-57
2024/02/28 05:21:05;;;;;;;23.20;10.10;;;;;;;0.92;100.00;101185.31;109059;1254;58792;-52
2024/02/28 05:23:31;;;;;;;15.80;9.00;;;;;;;0.92;100.00;101187.62;109008;1257;58713;-52
2024/02/28 05:26:03;;;;;;;27.50;9.20;;;;;;;0.92;100.00;101185.86;109032;1255;60056;-51
2024/02/28 05:28:31;;;;;;;21.80;8.90;;;;;;;0.93;100.00;101187.29;106345;1259;72884;-52
2024/02/28 05:30:57;;;;;;;20.00;8.90;;;;;;;0.95;100.00;101188.52;109087;1256;67080;-55
2024/02/28 05:33:24;;;;;;;15.90;7.30;;;;;;;0.98;100.00;101188.77;109062;1254;72500;-55
2024/02/28 05:35:50;;;;;;;22.70;8.90;;;;;;;1.04;100.00;101188.83;106387;1256;61594;-55
2024/02/28 05:38:17;;;;;;;16.70;7.60;;;;;;;1.09;100.00;101186.43;106079;1255;60424;-55
2024/02/28 05:40:44;;;;;;;18.40;8.60;;;;;;;1.13;100.00;101183.28;109025;1256;74209;-55
2024/02/28 05:43:10;;;;;;;17.80;7.60;;;;;;;1.16;100.00;101185.27;109062;1257;58427;-55
2024/02/28 05:45:37;;;;;;;19.60;9.70;;;;;;;1.18;100.00;101186.55;108949;1257;71350;-55
2024/02/28 05:48:03;;;;;;;23.70;10.90;;;;;;;1.20;100.00;101188.32;109082;1255;58597;-56
2024/02/28 05:50:32;;;;;;;20.20;9.60;;;;;;;1.21;100.00;101183.91;109018;1255;59279;-56
2024/02/28 05:52:59;;;;;;;16.10;8.40;;;;;;;1.21;100.00;101186.73;109083;1256;74226;-55
2024/02/28 05:55:26;;;;;;;19.60;9.60;;;;;;;1.22;100.00;101187.11;107874;1258;67585;-56
2024/02/28 05:57:52;;;;;;;24.80;9.70;;;;;;;1.23;100.00;101190.65;106356;1257;72704;-55
2024/02/28 06:00:19;;;;;;;27.80;8.30;;;;;;;1.22;100.00;101194.36;106881;1258;60928;-56
2024/02/28 06:02:46;;;;;;;22.90;7.50;;;;;;;1.24;100.00;101197.04;106026;1254;60407;-56
2024/02/28 06:05:12;;;;;;;20.30;8.20;;;;;;;1.27;100.00;101198.66;106037;1257;73930;-56
2024/02/28 06:07:39;;;;;;;16.10;7.90;;;;;;;1.32;100.00;101200.50;106055;1257;67132;-56
2024/02/28 06:10:06;;;;;;;21.60;8.60;;;;;;;1.37;100.00;101201.27;106054;1256;72698;-57
2024/02/28 06:12:32;;;;;;;18.00;7.50;;;;;;;1.43;100.00;101200.65;106100;1257;60394;-58
2024/02/28 06:14:59;;;;;;;16.20;7.80;;;;;;;1.49;100.00;101198.95;106081;1259;61323;-57
2024/02/28 06:17:25;;;;;;;18.40;8.60;;;;;;;1.55;100.00;101202.54;106136;1258;74317;-57
2024/02/28 06:19:52;;;;;;;18.40;8.60;;;;;;;1.60;100.00;101202.06;106035;1254;65616;-57
2024/02/28 06:22:18;;;;;;;16.70;7.50;;;;;;;1.64;100.00;101205.11;106004;1259;60390;-57
2024/02/28 06:24:45;;;;;;;15.30;7.20;;;;;;;1.66;100.00;101205.67;106081;1259;60635;-58
2024/02/28 06:27:13;;;;;;;19.10;6.90;;;;;;;1.68;100.00;101205.34;106473;1257;60374;-58
2024/02/28 06:29:40;;;;;;;21.40;8.00;;;;;;;1.70;100.00;101211.20;106446;1259;73857;-57
2024/02/28 06:32:07;;;;;;;24.00;7.40;;;;;;;1.73;100.00;101211.76;106034;1259;65684;-59
2024/02/28 06:34:33;;;;;;;18.00;6.20;;;;;;;1.77;100.00;101213.40;107668;1257;73174;-58
2024/02/28 06:37:00;;;;;;;15.80;5.10;;;;;;;1.81;100.00;101215.55;106037;1257;61529;-57
2024/02/28 06:39:27;;;;;;;18.50;6.00;;;;;;;1.86;100.00;101217.92;106142;1274;60828;-59
2024/02/28 06:41:54;;;;;;;18.20;6.30;;;;;;;1.92;100.00;101216.92;106568;1259;72831;-57
2024/02/28 06:44:20;;;;;;;13.10;6.30;;;;;;;2.00;100.00;101224.26;106002;1259;67000;-56
2024/02/28 06:46:48;;;;;;;13.40;4.90;;;;;;;2.08;100.00;101229.30;106004;1257;72202;-57
2024/02/28 06:49:15;;;;;;;11.40;4.90;;;;;;;2.15;100.00;101232.02;107126;1258;60447;-57
2024/02/28 06:51:43;;;;;;;15.10;5.40;;;;;;;2.22;100.00;101233.67;106005;1258;60546;-57
2024/02/28 06:54:10;;;;;;;12.00;5.30;;;;;;;2.28;100.00;101234.98;106268;1258;72631;-57
2024/02/28 06:56:37;;;;;;;16.00;5.90;;;;;;;2.33;100.00;101234.29;105911;1259;66314;-57
2024/02/28 06:59:03;;;;;;;19.40;5.30;;;;;;;2.37;100.00;101236.98;105986;1257;71593;-59
2024/02/28 07:01:30;;;;;;;11.30;4.80;;;;;;;2.41;100.00;101242.16;106086;1255;60460;-57
2024/02/28 07:03:56;;;;;;;13.00;4.80;;;;;;;2.44;100.00;101237.05;106280;1256;60462;-58
2024/02/28 07:06:23;;;;;;;13.40;4.10;;;;;;;2.47;100.00;101240.98;106437;1256;73766;-57
2024/02/28 07:08:50;;;;;;;12.70;4.50;;;;;;;2.51;100.00;101243.14;106326;1254;67424;-59
2024/02/28 07:11:17;;;;;;;8.20;4.00;;;;;;;2.57;100.00;101241.41;106185;1259;72742;-59
2024/02/28 07:13:43;;;;;;;15.20;4.90;;;;;;;2.63;100.00;101243.95;108260;1259;60082;-59
2024/02/28 07:16:10;;;;;;;11.80;5.10;;;;;;;2.71;100.00;101245.23;106446;1260;61247;-58
2024/02/28 07:18:37;;;;;;;9.80;4.10;;;;;;;2.79;100.00;101247.79;106014;1259;73692;-58
2024/02/28 07:21:06;;;;;;;8.80;4.10;;;;;;;2.88;100.00;101243.41;106135;1259;67110;-57
2024/02/28 07:23:33;;;;;;;5.50;2.90;;;;;;;2.96;100.00;101246.83;106212;1262;72596;-57
2024/02/28 07:26:00;;;;;;;10.70;4.60;;;;;;;3.03;100.00;101243.86;106032;1259;60494;-58
2024/02/28 07:28:38;;;;;;;7.60;3.10;;;;;;;3.10;100.00;101246.73;105999;1253;60859;-58
2024/02/28 07:31:05;;;;;;;12.60;4.20;;;;;;;3.15;100.00;101244.98;106070;1259;73768;-58
2024/02/28 07:33:32;;;;;;;13.10;4.00;;;;;;;3.19;100.00;101248.38;106125;1259;66218;-57
2024/02/28 07:36:00;;;;;;;9.90;3.10;;;;;;;3.20;100.00;101251.58;106242;1258;70148;-57
2024/02/28 07:38:27;;;;;;;6.00;2.80;;;;;;;3.22;100.00;101254.09;106580;1259;60517;-57
2024/02/28 07:40:54;;;;;;;6.60;4.20;;;;;;;3.25;100.00;101263.66;106294;1259;60549;-58
2024/02/28 07:43:20;;;;;;;12.10;4.60;;;;;;;3.29;100.00;101258.73;106066;1254;61441;-58
2024/02/28 07:45:47;;;;;;;15.60;2.90;;;;;;;3.34;100.00;101258.56;106061;1259;67250;-58
2024/02/28 07:48:14;;;;;;;9.80;3.00;;;;;;;3.41;100.00;101261.09;106069;1259;72691;-57
2024/02/28 07:50:41;;;;;;;6.70;3.10;;;;;;;3.49;100.00;101263.79;106077;1259;61211;-56
2024/02/28 07:53:08;;;;;;;5.50;3.10;;;;;;;3.56;100.00;101265.77;106971;1259;60572;-56
2024/02/28 07:55:34;;;;;;;10.80;2.80;;;;;;;3.65;100.00;101264.92;106161;1259;74124;-56
2024/02/28 07:58:01;;;;;;;13.40;2.50;;;;;;;3.75;100.00;101269.40;106143;1260;67662;-58
2024/02/28 08:00:28;;;;;;;8.00;2.20;;;;;;;3.85;100.00;101269.43;106202;1254;73024;-58
2024/02/28 08:02:55;;;;;;;4.40;2.50;;;;;;;3.93;100.00;101272.65;106238;1257;60429;-58
2024/02/28 08:05:22;;;;;;;9.90;2.70;;;;;;;4.00;100.00;101268.95;106616;1258;61089;-58
2024/02/28 08:07:49;;;;;;;10.40;3.20;;;;;;;4.07;100.00;101273.40;106378;1258;73901;-58
2024/02/28 08:10:15;;;;;;;9.40;2.80;;;;;;;4.12;100.00;101272.70;106133;1272;66202;-57
2024/02/28 08:12:42;;;;;;;6.60;2.50;;;;;;;4.17;100.00;101281.23;106129;1259;72353;-59
2024/02/28 08:15:09;;;;;;;8.30;2.70;;;;;;;4.22;100.00;101285.52;106074;1268;61532;-58
2024/02/28 08:17:36;;;;;;;7.20;2.80;;;;;;;4.27;100.00;101288.00;107243;1259;61315;-58
2024/02/28 08:20:05;;;;;;;5.50;2.60;;;;;;;4.32;100.00;101284.11;108719;1256;73863;-58
2024/02/28 08:22:31;;;;;;;11.30;2.90;;;;;;;4.34;100.00;101288.73;106064;1259;67071;-58
2024/02/28 08:24:58;;;;;;;6.20;1.90;;;;;;;4.38;100.00;101291.93;105929;1257;60485;-58
2024/02/28 08:27:25;;;;;;;12.70;3.40;;;;;;;4.41;100.00;101293.54;106020;1260;60745;-57
2024/02/28 08:29:52;;;;;;;11.40;2.10;;;;;;;4.45;100.00;101291.40;108962;1255;59471;-58
2024/02/28 08:32:18;;;;;;;4.00;1.80;;;;;;;4.48;100.00;101291.95;108108;1259;72727;-57
2024/02/28 08:34:49;;;;;;;6.50;1.70;;;;;;;4.52;100.00;101292.83;109094;1254;67221;-57
2024/02/28 08:37:17;;;;;;;5.20;1.50;;;;;;;4.56;100.00;101291.41;109151;1254;72724;-57
2024/02/28 08:39:43;;;;;;;6.20;2.30;;;;;;;4.60;100.00;101292.83;109019;1258;59546;-58
2024/02/28 08:42:10;;;;;;;10.70;2.30;;;;;;;4.65;100.00;101294.09;108100;1258;60230;-57
2024/02/28 08:44:37;;;;;;;5.00;2.20;;;;;;;4.70;100.00;101292.66;109010;1254;77553;-59
2024/02/28 08:47:03;;;;;;;14.10;9.50;;;;;;;4.75;100.00;101287.16;106520;1259;67549;-57
2024/02/28 08:49:31;;;;;;;42.30;31.70;;;;;;;4.81;100.00;101287.51;107587;1257;72737;-58
2024/02/28 08:51:57;;;;;;;12.00;8.80;;;;;;;4.87;100.00;101287.49;109027;1255;59766;-58
2024/02/28 08:54:25;;;;;;;53.10;38.00;;;;;;;4.92;100.00;101291.42;106260;1254;60668;-57
2024/02/28 08:56:51;;;;;;;33.00;22.60;;;;;;;4.96;100.00;101295.85;106529;1258;74308;-59
2024/02/28 08:59:29;;;;;;;23.70;15.30;;;;;;;4.99;100.00;101295.14;107671;1258;67146;-59
2024/02/28 09:01:56;;;;;;;13.70;8.80;;;;;;;5.00;100.00;101298.17;106048;1259;72697;-59
2024/02/28 09:04:22;;;;;;;22.20;14.00;;;;;;;5.01;100.00;101298.53;106078;1260;60802;-58
2024/02/28 09:06:49;;;;;;;11.90;7.00;;;;;;;5.02;100.00;101301.01;106051;1260;60443;-58
2024/02/28 09:09:16;;;;;;;12.70;7.60;;;;;;;5.04;100.00;101299.92;106086;1269;74305;-58
2024/02/28 09:11:43;;;;;;;30.40;23.00;;;;;;;5.07;100.00;101301.17;106100;1259;66180;-57
2024/02/28 09:14:10;;;;;;;33.90;26.10;;;;;;;5.12;100.00;101303.13;106025;1264;71669;-57
2024/02/28 09:16:37;;;;;;;13.50;8.30;;;;;;;5.17;100.00;101298.86;106065;1275;60313;-57
2024/02/28 09:19:03;;;;;;;11.00;5.20;;;;;;;5.22;100.00;101301.86;106021;1257;60421;-58
2024/02/28 09:21:30;;;;;;;12.30;6.00;;;;;;;5.28;100.00;101298.11;106208;1256;74309;-58
2024/02/28 09:23:57;;;;;;;7.20;3.60;;;;;;;5.36;100.00;101299.16;106112;1253;68307;-56
2024/02/28 09:26:24;;;;;;;6.70;3.10;;;;;;;5.44;100.00;101300.74;106069;1257;72549;-56
2024/02/28 09:28:50;;;;;;;4.20;2.70;;;;;;;5.48;100.00;101300.91;106036;1259;61307;-56
2024/02/28 09:31:17;;;;;;;10.40;3.20;;;;;;;5.53;100.00;101304.46;106117;1257;60611;-57
2024/02/28 09:33:45;;;;;;;6.30;2.30;;;;;;;5.57;100.00;101304.63;105977;1255;74154;-58
2024/02/28 09:36:12;;;;;;;5.40;1.90;;;;;;;5.60;100.00;101307.46;106089;1257;67145;-57
2024/02/28 09:38:39;;;;;;;5.70;2.30;;;;;;;5.63;100.00;101309.05;106005;1259;72540;-57
2024/02/28 09:41:05;;;;;;;6.00;2.10;;;;;;;5.65;100.00;101310.83;106152;1259;61575;-57
2024/02/28 09:43:32;;;;;;;8.00;2.10;;;;;;;5.68;100.00;101313.33;105981;1259;60796;-57
2024/02/28 09:46:05;;;;;;;3.30;2.00;;;;;;;5.73;100.00;101315.43;106163;1262;74027;-57
2024/02/28 09:48:32;;;;;;;5.80;2.30;;;;;;;5.78;100.00;101314.54;106248;1267;66973;-58
2024/02/28 09:50:59;;;;;;;6.30;1.90;;;;;;;5.82;100.00;101317.00;105826;1255;72553;-56
2024/02/28 09:53:26;;;;;;;4.50;2.10;;;;;;;5.86;100.00;101320.36;106123;1258;61737;-56
2024/02/28 09:55:53;;;;;;;2.90;1.40;;;;;;;5.90;100.00;101322.16;106426;1255;60014;-57
2024/02/28 09:58:21;;;;;;;7.80;1.60;;;;;;;5.94;100.00;101322.87;106065;1253;73866;-56
2024/02/28 10:00:48;;;;;;;7.40;1.90;;;;;;;5.99;100.00;101321.77;106187;1259;66871;-57
2024/02/28 10:03:22;;;;;;;6.30;2.10;;;;;;;6.02;100.00;101317.48;106397;1260;72690;-59
2024/02/28 10:05:49;;;;;;;6.10;2.00;;;;;;;6.05;100.00;101322.44;108777;1255;59426;-58
2024/02/28 10:08:15;;;;;;;3.20;1.60;;;;;;;6.09;100.00;101317.44;106100;1258;60465;-57
2024/02/28 10:10:47;;;;;;;5.10;1.50;;;;;;;6.12;100.00;101315.48;106177;1270;74211;-58
2024/02/28 10:13:17;;;;;;;7.10;1.70;;;;;;;6.13;100.00;101310.11;106135;1259;67302;-58
2024/02/28 10:15:44;;;;;;;5.60;2.00;;;;;;;6.15;100.00;101313.12;107609;1257;72366;-58
2024/02/28 10:18:11;;;;;;;7.10;1.50;;;;;;;6.19;100.00;101308.13;106125;1259;61271;-58
2024/02/28 10:20:38;;;;;;;8.40;2.20;;;;;;;6.22;100.00;101309.16;106316;1259;60381;-58
2024/02/28 10:23:06;;;;;;;23.20;13.30;;;;;;;6.26;100.00;101301.30;106037;1260;74340;-59
2024/02/28 10:25:32;;;;;;;6.00;2.90;;;;;;;6.32;100.00;101303.39;106285;1260;67153;-58
2024/02/28 10:28:07;;;;;;;10.10;1.70;;;;;;;6.39;100.00;101303.01;106145;1254;72992;-58
2024/02/28 10:30:39;;;;;;;5.50;1.80;;;;;;;6.46;100.00;101305.09;106105;1260;63599;-58
2024/02/28 10:33:10;;;;;;;8.10;2.10;;;;;;;6.54;100.00;101303.96;106617;1260;61307;-57
2024/02/28 10:35:37;;;;;;;5.30;1.80;;;;;;;6.60;100.00;101301.07;106107;1259;74089;-58
2024/02/28 10:38:04;;;;;;;5.80;1.70;;;;;;;6.67;100.00;101300.65;105947;1270;67546;-58
2024/02/28 10:40:30;;;;;;;4.30;1.50;;;;;;;6.71;100.00;101293.13;105925;1262;72619;-57
2024/02/28 10:42:58;;;;;;;6.20;1.70;;;;;;;6.76;100.00;101294.16;106078;1260;60985;-57
2024/02/28 10:45:25;;;;;;;6.00;1.80;;;;;;;6.82;100.00;101296.77;107214;1257;60547;-57
2024/02/28 10:48:16;;;;;;;3.40;1.50;;;;;;;6.91;100.00;101292.96;106065;1263;74165;-57
2024/02/28 10:50:44;;;;;;;3.80;1.40;;;;;;;7.00;100.00;101292.17;106192;1256;67347;-56
2024/02/28 10:53:15;;;;;;;4.80;1.70;;;;;;;7.07;100.00;101296.20;106258;1260;72567;-57
2024/02/28 10:55:43;;;;;;;10.30;2.10;;;;;;;7.15;100.00;101292.73;107806;1257;60575;-58
2024/02/28 10:58:10;;;;;;;3.20;2.20;;;;;;;7.20;100.00;101289.47;106133;1260;60764;-57
2024/02/28 11:00:45;;;;;;;8.60;2.70;;;;;;;7.25;100.00;101286.55;109081;1255;75140;-58
2024/02/28 11:03:12;;;;;;;;;;;;;;;7.29;100.00;101282.78;106186;1260;64990;-57
2024/02/28 11:05:39;;;;;;;4.40;1.60;;;;;;;7.31;100.00;101282.58;105949;1270;71777;-58